Time;durP1;ratioP1;P1;durP2;ratioP2;P2;SDS_P1;SDS_P2;PMS_P1;PMS_P2;Temp;Humidity;BMP_temperature;BMP_pressure;BME280_temperature;BME280_humidity;BME280_pressure;Samples;Min_cycle;Max_cycle;Signal;HPM_P1;HPM_P2
2021/12/24 00:00:35;;;;;;;43.27;26.17;;;;;;;;;;5081293;28;20199;-75
2021/12/24 00:03:00;;;;;;;43.53;25.73;;;;;;;;;;5066318;28;20180;-75
2021/12/24 00:05:26;;;;;;;39.13;25.33;;;;;;;;;;5071418;28;20180;-75
2021/12/24 00:07:51;;;;;;;37.37;25.00;;;;;;;;;;5070450;28;20200;-73
2021/12/24 00:10:16;;;;;;;39.53;24.60;;;;;;;;;;5071622;28;20572;-75
2021/12/24 00:12:47;;;;;;;37.13;24.20;;;;;;;;;;5086580;28;20710;-75
2021/12/24 00:16:04;;;;;;;35.47;22.73;;;;;;;;;;5081509;28;20199;-73
2021/12/24 00:18:14;;;;;;;41.07;24.33;;;;;;;;;;5078904;28;20760;-75
2021/12/24 00:21:51;;;;;;;36.30;23.73;;;;;;;;;;5081476;28;20401;-74
2021/12/24 00:37:13;;;;;;;31.03;21.63;;;;;;;;;;5083390;28;20257;-75
2021/12/24 00:39:48;;;;;;;31.37;21.47;;;;;;;;;;5081775;28;20180;-72
2021/12/24 00:42:14;;;;;;;29.70;20.30;;;;;;;;;;5083185;28;20556;-75
2021/12/24 00:44:39;;;;;;;29.13;20.50;;;;;;;;;;5081194;28;20213;-74
2021/12/24 00:47:04;;;;;;;30.27;20.53;;;;;;;;;;5082115;28;20299;-74
2021/12/24 00:49:29;;;;;;;29.43;20.83;;;;;;;;;;5079626;28;20181;-74
2021/12/24 00:52:07;;;;;;;32.57;21.90;;;;;;;;;;5082359;28;20572;-74
2021/12/24 00:57:19;;;;;;;32.70;19.60;;;;;;;;;;5082171;28;20718;-74
2021/12/24 00:59:45;;;;;;;28.30;19.83;;;;;;;;;;5082931;28;20192;-74
2021/12/24 01:02:10;;;;;;;30.50;19.47;;;;;;;;;;5083108;28;20190;-75
2021/12/24 01:04:35;;;;;;;27.47;20.03;;;;;;;;;;5083321;28;20255;-75
2021/12/24 01:07:00;;;;;;;33.53;21.13;;;;;;;;;;5086624;28;20196;-74
2021/12/24 01:09:25;;;;;;;30.40;20.10;;;;;;;;;;5083002;28;20184;-75
2021/12/24 01:11:51;;;;;;;28.60;20.20;;;;;;;;;;5087472;28;20656;-75
2021/12/24 01:14:16;;;;;;;30.90;20.43;;;;;;;;;;5085273;28;20543;-75
2021/12/24 01:16:49;;;;;;;32.30;20.60;;;;;;;;;;5087225;28;20177;-75
2021/12/24 01:19:20;;;;;;;31.17;20.67;;;;;;;;;;5080177;28;20180;-74
2021/12/24 01:24:37;;;;;;;35.77;22.70;;;;;;;;;;5086851;28;20693;-75
2021/12/24 01:27:16;;;;;;;40.97;23.67;;;;;;;;;;5092530;28;20212;-75
2021/12/24 01:29:53;;;;;;;35.97;22.87;;;;;;;;;;5089797;28;20184;-75
2021/12/24 01:37:55;;;;;;;42.63;23.77;;;;;;;;;;5079288;28;20745;-75
2021/12/24 01:42:49;;;;;;;38.30;22.43;;;;;;;;;;5082335;28;20253;-75
2021/12/24 01:45:16;;;;;;;39.23;22.40;;;;;;;;;;5082952;28;20637;-75
2021/12/24 01:47:41;;;;;;;41.13;23.53;;;;;;;;;;5083220;28;20209;-75
2021/12/24 01:50:06;;;;;;;37.90;24.23;;;;;;;;;;5083530;28;20225;-75
2021/12/24 01:52:32;;;;;;;38.13;22.07;;;;;;;;;;5090535;28;20560;-75
2021/12/24 01:54:57;;;;;;;40.63;23.60;;;;;;;;;;5082065;28;20200;-75
2021/12/24 01:57:22;;;;;;;41.83;22.73;;;;;;;;;;5079913;28;20636;-75
2021/12/24 01:59:47;;;;;;;50.03;25.50;;;;;;;;;;5081519;28;20180;-75
2021/12/24 02:02:12;;;;;;;38.30;22.90;;;;;;;;;;5086809;28;20614;-73
2021/12/24 02:04:38;;;;;;;40.30;23.97;;;;;;;;;;5086696;28;20191;-75
2021/12/24 02:07:04;;;;;;;45.90;22.13;;;;;;;;;;5086772;28;20207;-75
2021/12/24 02:09:29;;;;;;;43.40;23.47;;;;;;;;;;5084909;28;20173;-75
2021/12/24 02:11:55;;;;;;;41.80;23.20;;;;;;;;;;5073111;28;20268;-75
2021/12/24 02:14:23;;;;;;;37.10;22.63;;;;;;;;;;5087004;28;20581;-74
2021/12/24 02:17:16;;;;;;;38.57;21.20;;;;;;;;;;5076819;28;20254;-74
2021/12/24 02:30:35;;;;;;;33.90;18.50;;;;;;;;;;5082359;28;20191;-75
2021/12/24 02:33:02;;;;;;;29.70;18.50;;;;;;;;;;5089038;28;20171;-73
2021/12/24 02:35:27;;;;;;;29.53;18.43;;;;;;;;;;5085467;28;20665;-73
2021/12/24 02:37:52;;;;;;;31.30;17.20;;;;;;;;;;5091252;28;20234;-76
2021/12/24 02:40:18;;;;;;;29.20;17.43;;;;;;;;;;5091230;28;20177;-75
2021/12/24 02:42:49;;;;;;;31.03;18.27;;;;;;;;;;5091245;28;20173;-75
2021/12/24 02:45:14;;;;;;;28.70;16.57;;;;;;;;;;5088955;28;20186;-75
2021/12/24 02:48:07;;;;;;;28.10;16.47;;;;;;;;;;5089476;28;20212;-75
2021/12/24 02:55:34;;;;;;;28.33;16.07;;;;;;;;;;5081032;28;20230;-75
2021/12/24 02:57:59;;;;;;;26.07;14.30;;;;;;;;;;5079681;28;20201;-75
2021/12/24 03:00:27;;;;;;;27.53;15.80;;;;;;;;;;5081700;28;20184;-75
2021/12/24 03:02:53;;;;;;;22.93;14.20;;;;;;;;;;5087796;28;20176;-75
2021/12/24 03:05:19;;;;;;;26.37;14.77;;;;;;;;;;5083384;28;20176;-75
2021/12/24 03:07:45;;;;;;;28.63;15.73;;;;;;;;;;5081946;28;20237;-75
2021/12/24 03:10:16;;;;;;;29.43;14.33;;;;;;;;;;5086167;28;20534;-75
2021/12/24 03:12:44;;;;;;;25.97;14.23;;;;;;;;;;5085124;28;20215;-75
2021/12/24 03:15:10;;;;;;;27.13;14.47;;;;;;;;;;5086166;28;20301;-75
2021/12/24 03:17:35;;;;;;;22.30;13.70;;;;;;;;;;5081835;28;20286;-75
2021/12/24 03:20:08;;;;;;;24.33;14.50;;;;;;;;;;5080332;28;20255;-74
2021/12/24 03:25:07;;;;;;;28.73;14.13;;;;;;;;;;5080191;28;20195;-73
2021/12/24 03:27:33;;;;;;;17.50;13.07;;;;;;;;;;5081970;28;20587;-75
2021/12/24 03:29:58;;;;;;;21.30;12.00;;;;;;;;;;5090847;28;20176;-75
2021/12/24 03:32:24;;;;;;;34.00;14.97;;;;;;;;;;5089344;28;20176;-75
2021/12/24 03:34:49;;;;;;;18.17;11.67;;;;;;;;;;5080278;28;20211;-75
2021/12/24 03:37:14;;;;;;;22.50;13.83;;;;;;;;;;5092255;28;20204;-75
2021/12/24 03:39:40;;;;;;;21.37;13.73;;;;;;;;;;5085360;28;20172;-75
2021/12/24 03:42:05;;;;;;;20.37;12.40;;;;;;;;;;5089865;28;20176;-75
2021/12/24 03:44:35;;;;;;;24.53;13.07;;;;;;;;;;5080287;28;20173;-75
2021/12/24 03:47:08;;;;;;;23.47;13.70;;;;;;;;;;5089147;28;20600;-75
2021/12/24 03:52:15;;;;;;;18.40;11.60;;;;;;;;;;5086161;28;20184;-75
2021/12/24 03:54:57;;;;;;;25.73;12.90;;;;;;;;;;5087959;28;20208;-76
2021/12/24 03:57:42;;;;;;;21.83;11.77;;;;;;;;;;5084394;28;20307;-73
2021/12/24 04:00:13;;;;;;;24.83;12.17;;;;;;;;;;5089768;28;20279;-74
2021/12/24 04:02:39;;;;;;;21.93;11.20;;;;;;;;;;5082905;28;20245;-74
2021/12/24 04:05:04;;;;;;;19.77;12.53;;;;;;;;;;5086423;28;20180;-74
2021/12/24 04:07:29;;;;;;;17.83;10.60;;;;;;;;;;5087769;28;20708;-74
2021/12/24 04:12:39;;;;;;;19.30;11.17;;;;;;;;;;5085141;28;20180;-74
2021/12/24 04:15:05;;;;;;;23.67;11.40;;;;;;;;;;5086580;28;20211;-74
2021/12/24 04:17:32;;;;;;;22.70;12.00;;;;;;;;;;5088689;28;20677;-75
2021/12/24 04:25:24;;;;;;;18.97;10.27;;;;;;;;;;5088429;28;20221;-75
2021/12/24 04:27:51;;;;;;;22.97;10.53;;;;;;;;;;5090589;28;20192;-74
2021/12/24 04:30:22;;;;;;;20.40;10.33;;;;;;;;;;5089794;28;20263;-74
2021/12/24 04:33:02;;;;;;;16.67;11.00;;;;;;;;;;5087142;28;20635;-74
2021/12/24 04:51:10;;;;;;;13.47;8.10;;;;;;;;;;5087364;28;20267;-74
2021/12/24 05:01:52;;;;;;;18.23;8.17;;;;;;;;;;5088420;28;20259;-75
2021/12/24 05:04:25;;;;;;;19.77;8.57;;;;;;;;;;5086191;28;20217;-75
2021/12/24 05:06:56;;;;;;;19.10;8.03;;;;;;;;;;5086066;28;20768;-75
2021/12/24 05:09:24;;;;;;;16.00;7.03;;;;;;;;;;5084117;28;20660;-75
2021/12/24 05:11:49;;;;;;;22.10;8.00;;;;;;;;;;5091990;28;20326;-75
2021/12/24 05:14:15;;;;;;;13.80;7.80;;;;;;;;;;5087606;28;20216;-75
2021/12/24 05:16:54;;;;;;;17.97;8.30;;;;;;;;;;5083966;28;20271;-75
2021/12/24 05:21:47;;;;;;;18.93;8.53;;;;;;;;;;5090785;28;20183;-75
2021/12/24 05:24:14;;;;;;;22.33;8.10;;;;;;;;;;5088219;28;20564;-75
2021/12/24 05:26:40;;;;;;;16.23;7.17;;;;;;;;;;5084232;28;20176;-75
2021/12/24 05:29:06;;;;;;;20.50;6.93;;;;;;;;;;5087478;28;20196;-75
2021/12/24 05:31:31;;;;;;;21.30;7.30;;;;;;;;;;5085072;28;20616;-74
2021/12/24 05:33:57;;;;;;;20.87;7.53;;;;;;;;;;5083062;28;20184;-75
2021/12/24 05:36:23;;;;;;;19.27;6.60;;;;;;;;;;5080443;28;20267;-74
2021/12/24 05:38:48;;;;;;;21.33;6.83;;;;;;;;;;5085286;28;20234;-74
2021/12/24 05:41:13;;;;;;;17.70;7.63;;;;;;;;;;5085491;28;20233;-74
2021/12/24 05:43:39;;;;;;;19.27;6.57;;;;;;;;;;5083368;28;20181;-75
2021/12/24 05:46:04;;;;;;;18.80;7.73;;;;;;;;;;5085297;28;20275;-74
2021/12/24 05:48:29;;;;;;;21.37;6.63;;;;;;;;;;5088310;28;20196;-75
2021/12/24 05:50:54;;;;;;;15.20;6.50;;;;;;;;;;5087078;28;20184;-75
2021/12/24 05:53:21;;;;;;;19.00;7.03;;;;;;;;;;5085938;28;20181;-75
2021/12/24 05:55:47;;;;;;;16.20;6.83;;;;;;;;;;5090802;28;20690;-75
2021/12/24 05:58:12;;;;;;;18.10;6.83;;;;;;;;;;5090784;28;20247;-75
2021/12/24 06:00:39;;;;;;;20.73;7.30;;;;;;;;;;5088370;28;20548;-74
2021/12/24 06:03:06;;;;;;;17.67;6.23;;;;;;;;;;5090125;28;20262;-74
2021/12/24 06:05:31;;;;;;;22.83;6.40;;;;;;;;;;5087843;28;20180;-74
2021/12/24 06:07:57;;;;;;;14.60;6.00;;;;;;;;;;5091138;28;20295;-74
2021/12/24 06:10:22;;;;;;;17.60;7.03;;;;;;;;;;5089237;28;20278;-74
2021/12/24 06:12:47;;;;;;;17.87;5.53;;;;;;;;;;5088972;28;20212;-74
2021/12/24 06:15:12;;;;;;;16.63;7.17;;;;;;;;;;5091332;28;20203;-74
2021/12/24 06:17:39;;;;;;;21.97;6.00;;;;;;;;;;5093364;28;20228;-74
2021/12/24 06:20:05;;;;;;;21.97;6.13;;;;;;;;;;5088277;28;20184;-74
2021/12/24 06:22:30;;;;;;;15.10;5.70;;;;;;;;;;5089291;28;20172;-74
2021/12/24 06:24:56;;;;;;;19.27;6.17;;;;;;;;;;5084338;28;20192;-74
2021/12/24 06:27:21;;;;;;;18.23;6.57;;;;;;;;;;5083203;28;20295;-74
2021/12/24 06:29:46;;;;;;;30.47;6.57;;;;;;;;;;5085600;28;20241;-74
2021/12/24 06:32:11;;;;;;;18.73;6.90;;;;;;;;;;5092360;28;20180;-74
2021/12/24 06:34:36;;;;;;;16.07;5.80;;;;;;;;;;5082970;28;20268;-75
2021/12/24 06:37:02;;;;;;;21.63;7.77;;;;;;;;;;5087477;28;20196;-75
2021/12/24 06:39:27;;;;;;;20.40;5.80;;;;;;;;;;5085767;28;20173;-75
2021/12/24 06:41:54;;;;;;;19.70;6.63;;;;;;;;;;5085910;28;20211;-75
2021/12/24 06:44:20;;;;;;;16.67;7.13;;;;;;;;;;5085429;28;20536;-75
2021/12/24 06:46:46;;;;;;;20.13;5.57;;;;;;;;;;5083948;28;20638;-75
2021/12/24 06:49:11;;;;;;;21.97;7.77;;;;;;;;;;5088137;28;20188;-75
2021/12/24 06:51:36;;;;;;;15.70;6.27;;;;;;;;;;5080907;28;20232;-75
2021/12/24 06:54:02;;;;;;;26.80;7.50;;;;;;;;;;5085735;28;20176;-75
2021/12/24 06:56:27;;;;;;;18.53;6.80;;;;;;;;;;5077694;28;20215;-76
2021/12/24 06:58:52;;;;;;;19.97;6.07;;;;;;;;;;5054548;22;20777;-72
2021/12/24 07:01:18;;;;;;;23.00;7.33;;;;;;;;;;5028626;28;20183;-72
2021/12/24 07:03:43;;;;;;;22.00;6.97;;;;;;;;;;5021824;28;21623;-72
2021/12/24 07:06:08;;;;;;;23.10;7.60;;;;;;;;;;5041342;28;20272;-73
2021/12/24 07:08:34;;;;;;;15.87;6.07;;;;;;;;;;5022903;28;20213;-73
2021/12/24 07:10:59;;;;;;;21.33;7.70;;;;;;;;;;5034819;28;20178;-73
2021/12/24 07:13:25;;;;;;;26.67;7.83;;;;;;;;;;5028718;28;20178;-73
2021/12/24 07:15:51;;;;;;;16.23;7.23;;;;;;;;;;5029246;28;20280;-73
2021/12/24 07:18:16;;;;;;;21.23;6.83;;;;;;;;;;5029378;28;20646;-73
2021/12/24 07:20:41;;;;;;;19.90;6.30;;;;;;;;;;5027552;28;20580;-72
2021/12/24 07:23:06;;;;;;;20.53;6.63;;;;;;;;;;5037343;28;20169;-73
2021/12/24 07:25:32;;;;;;;32.07;7.83;;;;;;;;;;5031677;28;20170;-72
2021/12/24 07:27:57;;;;;;;22.87;7.93;;;;;;;;;;5030364;28;20297;-73
2021/12/24 07:30:22;;;;;;;19.90;6.43;;;;;;;;;;5031324;28;20210;-72
2021/12/24 07:32:48;;;;;;;18.70;6.30;;;;;;;;;;5028831;28;20214;-73
2021/12/24 07:35:13;;;;;;;17.47;6.03;;;;;;;;;;5026337;28;20851;-73
2021/12/24 07:37:39;;;;;;;17.43;6.90;;;;;;;;;;5036494;28;20458;-73
2021/12/24 07:40:05;;;;;;;18.87;7.23;;;;;;;;;;5027877;28;20179;-73
2021/12/24 07:42:30;;;;;;;18.20;6.60;;;;;;;;;;5030545;28;20244;-73
2021/12/24 07:44:56;;;;;;;25.90;9.10;;;;;;;;;;5042074;28;20178;-72
2021/12/24 07:47:28;;;;;;;17.60;7.00;;;;;;;;;;5027775;28;20206;-72
2021/12/24 07:50:02;;;;;;;17.93;6.27;;;;;;;;;;5030782;28;20181;-73
2021/12/24 07:52:28;;;;;;;15.53;6.37;;;;;;;;;;5030904;28;20178;-73
2021/12/24 07:54:56;;;;;;;19.80;6.27;;;;;;;;;;5032768;28;20687;-73
2021/12/24 07:57:22;;;;;;;16.10;5.27;;;;;;;;;;5032093;28;20594;-73
2021/12/24 07:59:48;;;;;;;15.03;6.77;;;;;;;;;;5028225;28;20603;-72
2021/12/24 08:02:15;;;;;;;21.20;6.07;;;;;;;;;;5028294;28;20170;-73
2021/12/24 08:04:41;;;;;;;17.60;6.50;;;;;;;;;;5026562;28;20186;-73
2021/12/24 08:07:07;;;;;;;17.37;5.90;;;;;;;;;;5029389;28;20188;-73
2021/12/24 08:09:32;;;;;;;18.63;4.67;;;;;;;;;;5031389;28;20282;-73
2021/12/24 08:11:58;;;;;;;15.50;5.40;;;;;;;;;;5036681;28;20194;-73
2021/12/24 08:14:23;;;;;;;15.37;5.17;;;;;;;;;;5047417;28;20206;-73
2021/12/24 08:16:48;;;;;;;20.13;4.83;;;;;;;;;;5031264;28;20182;-73
2021/12/24 08:19:16;;;;;;;19.63;4.97;;;;;;;;;;5037931;28;20529;-72
2021/12/24 08:21:41;;;;;;;15.83;5.73;;;;;;;;;;5036638;28;20547;-72
2021/12/24 08:24:07;;;;;;;16.93;6.33;;;;;;;;;;5035962;28;20182;-73
2021/12/24 08:26:32;;;;;;;20.57;5.17;;;;;;;;;;5024423;28;20181;-72
2021/12/24 08:28:57;;;;;;;21.87;5.33;;;;;;;;;;5028157;28;20212;-74
2021/12/24 08:31:22;;;;;;;15.20;4.67;;;;;;;;;;5033451;28;20185;-72
2021/12/24 08:33:48;;;;;;;9.77;4.27;;;;;;;;;;5034988;28;20170;-73
2021/12/24 08:36:13;;;;;;;15.63;3.97;;;;;;;;;;5034967;28;20226;-72
2021/12/24 08:38:39;;;;;;;17.43;5.70;;;;;;;;;;5032406;28;20194;-72
2021/12/24 08:41:04;;;;;;;20.17;4.60;;;;;;;;;;5024561;28;20564;-73
2021/12/24 08:43:30;;;;;;;16.37;6.07;;;;;;;;;;5033792;28;20261;-74
2021/12/24 08:45:55;;;;;;;12.07;4.17;;;;;;;;;;5035214;28;20174;-73
2021/12/24 08:48:20;;;;;;;25.10;5.00;;;;;;;;;;5034528;28;20666;-72
2021/12/24 08:50:46;;;;;;;21.57;5.57;;;;;;;;;;5027583;28;20183;-73
2021/12/24 08:53:11;;;;;;;19.70;5.67;;;;;;;;;;5036176;28;20178;-73
2021/12/24 08:55:36;;;;;;;16.37;5.30;;;;;;;;;;5036809;28;20205;-73
2021/12/24 08:58:02;;;;;;;21.00;5.63;;;;;;;;;;5033806;28;20209;-73
2021/12/24 09:00:28;;;;;;;15.97;5.40;;;;;;;;;;5037013;28;20214;-72
2021/12/24 09:02:53;;;;;;;18.93;6.67;;;;;;;;;;5040476;28;20174;-73
2021/12/24 09:05:18;;;;;;;20.77;5.50;;;;;;;;;;5030564;28;20658;-73
2021/12/24 09:07:43;;;;;;;20.60;5.87;;;;;;;;;;5030030;28;20205;-73
2021/12/24 09:10:09;;;;;;;24.13;7.30;;;;;;;;;;5041225;28;20242;-73
2021/12/24 09:12:35;;;;;;;17.57;5.37;;;;;;;;;;5033722;28;20186;-72
2021/12/24 09:15:00;;;;;;;14.97;5.73;;;;;;;;;;5030293;28;20600;-73
2021/12/24 09:17:27;;;;;;;22.43;6.00;;;;;;;;;;5034257;28;20553;-72
2021/12/24 09:19:54;;;;;;;21.17;7.00;;;;;;;;;;5038165;28;20975;-73
2021/12/24 09:22:23;;;;;;;24.87;7.77;;;;;;;;;;5031980;28;20201;-73
2021/12/24 09:24:50;;;;;;;16.83;6.27;;;;;;;;;;5018702;28;20182;-73
2021/12/24 09:27:16;;;;;;;18.13;6.50;;;;;;;;;;5014476;28;20193;-76
2021/12/24 09:29:42;;;;;;;15.03;6.73;;;;;;;;;;5015528;28;20656;-74
2021/12/24 09:32:07;;;;;;;26.37;7.53;;;;;;;;;;5013780;28;20244;-75
2021/12/24 09:34:33;;;;;;;23.40;5.43;;;;;;;;;;5014787;28;20206;-74
2021/12/24 09:36:58;;;;;;;12.93;5.67;;;;;;;;;;5015987;28;20265;-72
2021/12/24 09:39:23;;;;;;;15.27;6.10;;;;;;;;;;5015488;28;20268;-73
2021/12/24 09:41:48;;;;;;;16.70;6.90;;;;;;;;;;5015235;28;20174;-72
2021/12/24 09:44:14;;;;;;;24.20;5.90;;;;;;;;;;5016423;28;20186;-73
2021/12/24 09:46:42;;;;;;;22.53;6.60;;;;;;;;;;5014105;28;20633;-72
2021/12/24 09:49:08;;;;;;;27.00;8.33;;;;;;;;;;5029312;28;20226;-74
2021/12/24 09:51:36;;;;;;;16.50;6.47;;;;;;;;;;5015133;28;20253;-74
2021/12/24 09:54:02;;;;;;;15.30;6.03;;;;;;;;;;5015068;28;20308;-73
2021/12/24 09:56:27;;;;;;;19.13;7.63;;;;;;;;;;5013917;28;20178;-73
2021/12/24 09:58:52;;;;;;;20.07;7.37;;;;;;;;;;5015886;28;20245;-74
2021/12/24 10:01:33;;;;;;;29.13;7.83;;;;;;;;;;5030307;28;20178;-73
2021/12/24 10:04:06;;;;;;;15.80;6.90;;;;;;;;;;5010950;28;21864;-73
2021/12/24 10:06:32;;;;;;;13.60;6.47;;;;;;;;;;5016591;28;20618;-74
2021/12/24 10:09:01;;;;;;;16.73;7.10;;;;;;;;;;5027604;28;20198;-74
2021/12/24 10:11:31;;;;;;;17.63;6.73;;;;;;;;;;5034500;28;20605;-74
2021/12/24 10:14:03;;;;;;;16.77;6.37;;;;;;;;;;5016538;28;20699;-73
2021/12/24 10:16:28;;;;;;;18.73;6.93;;;;;;;;;;5019787;28;20946;-73
2021/12/24 10:18:54;;;;;;;16.40;7.17;;;;;;;;;;5017500;28;20293;-73
2021/12/24 10:21:23;;;;;;;17.50;7.30;;;;;;;;;;5016034;28;20182;-72
2021/12/24 10:23:48;;;;;;;17.93;6.57;;;;;;;;;;5031267;28;21068;-73
2021/12/24 10:26:22;;;;;;;21.40;6.73;;;;;;;;;;5020302;28;20614;-73
2021/12/24 10:28:49;;;;;;;17.57;6.87;;;;;;;;;;5014747;28;20230;-73
2021/12/24 10:31:18;;;;;;;20.53;7.57;;;;;;;;;;5019236;28;20224;-73
2021/12/24 10:34:03;;;;;;;23.47;7.40;;;;;;;;;;5018149;28;20642;-73
2021/12/24 10:36:29;;;;;;;19.13;6.43;;;;;;;;;;5014634;28;20194;-73
2021/12/24 10:38:55;;;;;;;22.00;7.63;;;;;;;;;;5014061;28;20197;-71
2021/12/24 10:41:20;;;;;;;26.63;6.90;;;;;;;;;;5016425;28;20272;-71
2021/12/24 10:43:45;;;;;;;25.17;6.77;;;;;;;;;;5018156;28;20170;-72
2021/12/24 10:46:13;;;;;;;18.50;6.80;;;;;;;;;;5017163;28;20185;-71
2021/12/24 10:48:46;;;;;;;18.97;6.93;;;;;;;;;;5029202;28;20229;-72
2021/12/24 10:51:20;;;;;;;20.90;7.23;;;;;;;;;;5033864;28;20264;-72
2021/12/24 10:54:04;;;;;;;16.40;5.80;;;;;;;;;;5018091;28;20182;-72
2021/12/24 10:56:29;;;;;;;20.37;7.37;;;;;;;;;;5017991;28;20186;-72
2021/12/24 10:58:54;;;;;;;19.67;6.60;;;;;;;;;;5022385;28;20217;-72
2021/12/24 11:01:20;;;;;;;16.33;6.13;;;;;;;;;;5030411;28;20605;-73
2021/12/24 11:03:45;;;;;;;20.30;6.17;;;;;;;;;;5053147;28;20646;-73
2021/12/24 11:06:12;;;;;;;16.03;7.00;;;;;;;;;;5014189;28;20653;-72
2021/12/24 11:08:39;;;;;;;20.07;6.07;;;;;;;;;;5015736;28;20616;-72
2021/12/24 11:11:06;;;;;;;16.33;6.40;;;;;;;;;;5015500;28;20198;-73
2021/12/24 11:13:39;;;;;;;20.27;6.60;;;;;;;;;;5017125;28;20752;-72
2021/12/24 11:16:06;;;;;;;18.37;5.63;;;;;;;;;;5015653;28;20297;-72
2021/12/24 11:18:34;;;;;;;21.53;6.57;;;;;;;;;;5015772;28;20206;-72
2021/12/24 11:21:05;;;;;;;18.63;6.93;;;;;;;;;;5017383;28;20255;-72
2021/12/24 11:23:31;;;;;;;20.93;6.47;;;;;;;;;;5014391;28;20559;-72
2021/12/24 11:25:58;;;;;;;17.20;6.07;;;;;;;;;;5031970;28;20264;-72
2021/12/24 11:28:25;;;;;;;22.13;8.73;;;;;;;;;;5019640;28;20199;-71
2021/12/24 11:30:52;;;;;;;19.93;6.37;;;;;;;;;;5036021;28;20178;-72
2021/12/24 11:33:22;;;;;;;20.13;7.73;;;;;;;;;;5016980;28;20185;-72
2021/12/24 11:35:48;;;;;;;10.63;5.33;;;;;;;;;;5023978;28;20202;-71
2021/12/24 11:38:15;;;;;;;14.90;5.73;;;;;;;;;;5026525;28;20630;-71
2021/12/24 11:40:40;;;;;;;21.67;6.47;;;;;;;;;;5026202;28;20515;-72
2021/12/24 11:43:06;;;;;;;16.10;4.73;;;;;;;;;;5028348;28;20191;-72
2021/12/24 11:45:33;;;;;;;11.00;5.23;;;;;;;;;;5018563;28;20175;-72
2021/12/24 11:47:59;;;;;;;21.40;6.20;;;;;;;;;;5025364;28;20252;-73
2021/12/24 11:50:24;;;;;;;17.07;5.77;;;;;;;;;;5021874;28;20181;-72
2021/12/24 11:52:51;;;;;;;14.30;5.40;;;;;;;;;;5017954;28;20301;-72
2021/12/24 11:55:18;;;;;;;16.50;6.50;;;;;;;;;;5022769;28;20194;-72
2021/12/24 11:58:10;;;;;;;19.90;5.07;;;;;;;;;;5021515;28;20600;-71
2021/12/24 12:00:39;;;;;;;23.13;6.70;;;;;;;;;;5004763;28;20179;-73
2021/12/24 12:03:05;;;;;;;14.60;5.17;;;;;;;;;;5021360;28;20889;-72
2021/12/24 12:05:35;;;;;;;20.63;6.70;;;;;;;;;;5021219;28;20206;-73
2021/12/24 12:08:19;;;;;;;16.13;5.13;;;;;;;;;;5016756;28;20241;-72
2021/12/24 12:10:48;;;;;;;15.20;5.77;;;;;;;;;;5019058;28;20190;-73
2021/12/24 12:13:32;;;;;;;17.50;5.83;;;;;;;;;;5016256;28;20209;-73
2021/12/24 12:15:57;;;;;;;17.73;7.27;;;;;;;;;;5020282;28;20209;-72
2021/12/24 12:18:28;;;;;;;14.80;6.77;;;;;;;;;;5019124;28;20198;-71
2021/12/24 12:21:07;;;;;;;10.03;5.13;;;;;;;;;;5019670;28;20174;-72
2021/12/24 12:24:03;;;;;;;12.20;5.77;;;;;;;;;;5018667;28;20770;-71
2021/12/24 12:26:35;;;;;;;17.60;5.63;;;;;;;;;;5018487;28;20178;-74
2021/12/24 12:29:15;;;;;;;17.30;6.47;;;;;;;;;;5016445;28;20194;-73
2021/12/24 12:31:40;;;;;;;16.37;6.47;;;;;;;;;;5035086;28;20167;-72
2021/12/24 12:34:24;;;;;;;18.37;5.93;;;;;;;;;;5017138;28;20197;-72
2021/12/24 12:36:50;;;;;;;21.70;6.03;;;;;;;;;;5018184;28;20185;-73
2021/12/24 12:39:25;;;;;;;14.27;5.63;;;;;;;;;;5016410;28;20187;-74
2021/12/24 12:41:51;;;;;;;16.47;5.57;;;;;;;;;;5017020;28;20235;-72
2021/12/24 12:44:16;;;;;;;21.03;6.53;;;;;;;;;;5016962;28;20662;-71
2021/12/24 12:46:43;;;;;;;18.57;7.33;;;;;;;;;;5016956;28;20179;-71
2021/12/24 12:49:16;;;;;;;22.83;5.87;;;;;;;;;;5017585;28;20233;-71
2021/12/24 12:51:56;;;;;;;20.37;6.17;;;;;;;;;;5016826;28;20181;-72
2021/12/24 12:54:35;;;;;;;16.63;5.17;;;;;;;;;;5018123;28;20288;-71
2021/12/24 12:59:40;;;;;;;20.07;5.87;;;;;;;;;;5026231;28;20703;-70
2021/12/24 13:02:05;;;;;;;17.27;5.67;;;;;;;;;;5030747;28;20186;-71
2021/12/24 13:04:31;;;;;;;14.63;5.73;;;;;;;;;;5028942;28;20182;-72
2021/12/24 13:06:57;;;;;;;14.10;5.23;;;;;;;;;;5030007;28;20185;-71
2021/12/24 13:09:24;;;;;;;19.33;7.57;;;;;;;;;;5041976;28;20216;-72
2021/12/24 13:11:53;;;;;;;18.73;5.73;;;;;;;;;;5042432;28;20174;-71
2021/12/24 13:14:20;;;;;;;14.97;5.33;;;;;;;;;;5029988;28;20651;-72
2021/12/24 13:22:30;;;;;;;15.83;5.07;;;;;;;;;;5030006;28;20204;-71
2021/12/24 13:24:58;;;;;;;16.60;5.47;;;;;;;;;;5030022;28;20252;-71
2021/12/24 13:27:25;;;;;;;13.10;4.57;;;;;;;;;;5027496;28;20303;-70
2021/12/24 13:30:23;;;;;;;17.10;4.67;;;;;;;;;;5029032;28;20193;-73
2021/12/24 13:32:50;;;;;;;16.93;5.57;;;;;;;;;;5003640;28;20198;-72
2021/12/24 13:35:17;;;;;;;13.07;4.67;;;;;;;;;;5036387;28;20221;-72
2021/12/24 13:37:45;;;;;;;10.23;4.63;;;;;;;;;;5045568;28;20685;-73
2021/12/24 13:40:11;;;;;;;21.67;5.27;;;;;;;;;;5049398;28;20636;-73
2021/12/24 13:42:44;;;;;;;11.77;5.50;;;;;;;;;;5044518;28;20236;-71
2021/12/24 13:45:09;;;;;;;12.70;5.40;;;;;;;;;;5027205;28;20185;-71
2021/12/24 13:47:56;;;;;;;16.90;4.93;;;;;;;;;;5029274;28;20223;-71
2021/12/24 13:55:32;;;;;;;9.90;4.60;;;;;;;;;;5031484;28;20216;-72
2021/12/24 13:57:59;;;;;;;14.43;4.63;;;;;;;;;;5027844;28;20263;-72
2021/12/24 14:00:25;;;;;;;15.67;5.33;;;;;;;;;;5027134;28;20186;-71
2021/12/24 14:02:51;;;;;;;13.43;5.03;;;;;;;;;;5026705;28;20204;-71
2021/12/24 14:05:18;;;;;;;15.80;6.00;;;;;;;;;;5033814;28;20272;-73
2021/12/24 14:07:47;;;;;;;18.77;5.67;;;;;;;;;;5029771;28;20221;-71
2021/12/24 14:10:23;;;;;;;14.53;5.60;;;;;;;;;;5032840;28;20280;-74
2021/12/24 14:12:48;;;;;;;17.47;5.33;;;;;;;;;;5027031;28;20192;-72
2021/12/24 14:15:15;;;;;;;14.37;4.77;;;;;;;;;;5029416;28;20213;-71
2021/12/24 14:20:58;;;;;;;13.40;5.10;;;;;;;;;;5029102;28;20831;-74
2021/12/24 14:23:17;;;;;;;13.13;5.13;;;;;;;;;;5027702;28;20235;-73
2021/12/24 14:26:01;;;;;;;13.93;4.83;;;;;;;;;;5031140;28;20197;-72
2021/12/24 14:28:26;;;;;;;20.33;6.90;;;;;;;;;;5028073;28;20221;-72
2021/12/24 14:31:01;;;;;;;16.20;5.50;;;;;;;;;;5030340;28;20190;-73
2021/12/24 14:33:27;;;;;;;15.73;5.73;;;;;;;;;;5026937;28;20198;-73
2021/12/24 14:35:53;;;;;;;17.43;5.40;;;;;;;;;;5027156;28;20236;-73
2021/12/24 14:38:23;;;;;;;16.03;5.53;;;;;;;;;;5025872;28;20221;-73
2021/12/24 14:40:55;;;;;;;19.07;6.20;;;;;;;;;;5027342;28;20583;-73
2021/12/24 14:43:20;;;;;;;16.53;6.30;;;;;;;;;;5026517;28;20174;-73
2021/12/24 14:45:47;;;;;;;14.33;5.90;;;;;;;;;;5026883;28;20609;-73
2021/12/24 14:48:14;;;;;;;14.80;6.30;;;;;;;;;;5027957;28;20240;-71
2021/12/24 14:51:14;;;;;;;22.47;6.10;;;;;;;;;;5028147;28;20209;-71
2021/12/24 14:53:40;;;;;;;18.40;6.50;;;;;;;;;;4997709;28;20194;-74
2021/12/24 14:56:19;;;;;;;24.63;7.47;;;;;;;;;;5020969;28;20631;-71
2021/12/24 14:58:58;;;;;;;17.37;8.27;;;;;;;;;;5027688;28;20658;-73
2021/12/24 15:01:25;;;;;;;19.70;7.93;;;;;;;;;;5028986;28;20681;-72
2021/12/24 15:03:55;;;;;;;20.17;7.60;;;;;;;;;;5030290;28;20186;-71
2021/12/24 15:06:27;;;;;;;20.47;8.27;;;;;;;;;;5026740;28;20671;-73
2021/12/24 15:08:53;;;;;;;18.73;7.50;;;;;;;;;;5019231;28;20312;-72
2021/12/24 15:11:19;;;;;;;19.60;8.63;;;;;;;;;;5027521;28;20201;-73
2021/12/24 15:13:50;;;;;;;27.53;9.97;;;;;;;;;;5026864;28;20178;-72
2021/12/24 15:16:19;;;;;;;18.80;7.80;;;;;;;;;;5028084;28;20411;-73
2021/12/24 15:18:45;;;;;;;17.90;7.70;;;;;;;;;;5032901;28;20201;-73
2021/12/24 15:21:10;;;;;;;22.87;9.40;;;;;;;;;;5048863;28;20267;-74
2021/12/24 15:23:36;;;;;;;23.43;9.00;;;;;;;;;;5036078;28;20181;-72
2021/12/24 15:26:01;;;;;;;23.33;8.80;;;;;;;;;;5031370;28;21880;-73
2021/12/24 15:28:26;;;;;;;20.83;8.60;;;;;;;;;;5041895;28;20205;-73
2021/12/24 15:30:52;;;;;;;26.63;10.67;;;;;;;;;;5034386;28;20177;-73
2021/12/24 15:33:18;;;;;;;22.13;9.63;;;;;;;;;;5036486;28;20263;-73
2021/12/24 15:35:45;;;;;;;28.37;9.03;;;;;;;;;;5033803;28;20193;-71
2021/12/24 15:38:10;;;;;;;25.73;9.87;;;;;;;;;;5032108;28;20201;-73
2021/12/24 15:40:36;;;;;;;25.73;9.37;;;;;;;;;;5030125;28;20239;-73
2021/12/24 15:43:02;;;;;;;25.40;8.87;;;;;;;;;;5032167;28;20220;-73
2021/12/24 15:45:29;;;;;;;27.87;9.30;;;;;;;;;;5033761;28;20185;-73
2021/12/24 15:47:54;;;;;;;20.67;9.13;;;;;;;;;;5031927;28;20202;-72
2021/12/24 15:50:19;;;;;;;20.03;8.23;;;;;;;;;;5032678;28;20181;-72
2021/12/24 15:52:45;;;;;;;14.43;7.73;;;;;;;;;;5033124;28;20606;-75
2021/12/24 15:55:10;;;;;;;11.90;6.77;;;;;;;;;;5033815;28;20715;-72
2021/12/24 15:57:35;;;;;;;7.73;6.30;;;;;;;;;;5034020;28;20206;-72
2021/12/24 16:00:00;;;;;;;8.33;5.10;;;;;;;;;;5032598;28;20554;-71
2021/12/24 16:02:25;;;;;;;8.40;5.47;;;;;;;;;;5032472;28;20182;-70
2021/12/24 16:04:51;;;;;;;4.83;3.73;;;;;;;;;;5035626;28;20182;-70
2021/12/24 16:07:16;;;;;;;4.37;3.40;;;;;;;;;;5034168;28;20264;-71
2021/12/24 16:09:41;;;;;;;4.13;3.10;;;;;;;;;;5046438;28;20618;-73